createdAt,value
2019-02-16T00:01:14.998Z,99511.72
2019-02-16T00:03:44.266Z,99506.36
2019-02-16T00:06:13.928Z,99506.27
2019-02-16T00:08:43.475Z,99502.09
2019-02-16T00:11:14.740Z,99499.83
2019-02-16T00:13:43.985Z,99504.27
2019-02-16T00:16:13.309Z,99500.56
2019-02-16T00:18:42.561Z,99496.97
2019-02-16T00:21:11.788Z,99499.59
2019-02-16T00:23:41.059Z,99502.11
2019-02-16T00:26:10.852Z,99494.95
2019-02-16T00:28:40.093Z,99498.70
2019-02-16T00:31:09.315Z,99492.48
2019-02-16T00:33:38.570Z,99491.77
2019-02-16T00:36:07.787Z,99494.33
2019-02-16T00:38:37.317Z,99486.71
2019-02-16T00:41:06.743Z,99492.04
2019-02-16T00:43:36.029Z,99494.33
2019-02-16T00:46:05.267Z,99486.58
2019-02-16T00:48:34.543Z,99492.70
2019-02-16T00:51:12.956Z,99492.72
2019-02-16T00:53:34.961Z,99486.30
2019-02-16T00:56:04.223Z,99491.55
2019-02-16T00:58:33.880Z,99487.83
2019-02-16T01:01:03.137Z,99489.02
2019-02-16T01:03:32.382Z,99481.22
2019-02-16T01:06:01.601Z,99484.10
2019-02-16T01:08:30.883Z,99477.80
2019-02-16T01:11:00.099Z,99473.91
2019-02-16T01:13:29.374Z,99468.98
2019-02-16T01:15:58.592Z,99465.77
2019-02-16T01:18:27.926Z,99461.84
2019-02-16T01:20:57.146Z,99462.42
2019-02-16T01:23:26.390Z,99455.28
2019-02-16T01:25:55.645Z,99463.89
2019-02-16T01:28:24.871Z,99454.13
2019-02-16T01:30:54.148Z,99450.53
2019-02-16T01:33:23.414Z,99452.95
2019-02-16T01:35:52.642Z,99449.14
2019-02-16T01:38:21.886Z,99441.12
2019-02-16T01:40:51.350Z,99439.57
2019-02-16T01:43:20.573Z,99446.39
2019-02-16T01:45:49.831Z,99441.95
2019-02-16T01:48:19.544Z,99425.64
2019-02-16T01:50:48.807Z,99432.09
2019-02-16T01:53:18.012Z,99422.91
2019-02-16T01:55:47.584Z,99424.59
2019-02-16T01:58:16.846Z,99422.80
2019-02-16T02:00:46.109Z,99415.88
2019-02-16T02:03:16.549Z,99417.19
2019-02-16T02:05:45.800Z,99407.20
2019-02-16T02:08:15.282Z,99411.13
2019-02-16T02:10:46.921Z,99405.29
2019-02-16T02:13:16.184Z,99392.65
2019-02-16T02:15:45.492Z,99394.58
2019-02-16T02:18:14.705Z,99389.47
2019-02-16T02:20:43.977Z,99382.95
2019-02-16T02:23:13.186Z,99385.25
2019-02-16T02:25:42.458Z,99380.88
2019-02-16T02:28:11.680Z,99381.33
2019-02-16T02:30:40.946Z,99387.12
2019-02-16T02:33:10.537Z,99381.49
2019-02-16T02:35:39.803Z,99383.22
2019-02-16T02:38:09.033Z,99376.91
2019-02-16T02:40:38.297Z,99378.30
2019-02-16T02:43:07.520Z,99378.19
2019-02-16T02:45:36.783Z,99370.56
2019-02-16T02:48:08.292Z,99368.33
2019-02-16T02:50:37.565Z,99379.02
2019-02-16T02:53:07.172Z,99378.81
2019-02-16T02:55:36.407Z,99376.94
2019-02-16T02:58:05.664Z,99373.40
2019-02-16T03:00:34.906Z,99367.91
2019-02-16T03:03:04.133Z,99367.45
2019-02-16T03:05:33.355Z,99366.42
2019-02-16T03:08:02.615Z,99371.52
2019-02-16T03:10:31.898Z,99360.06
2019-02-16T03:13:01.187Z,99360.44
2019-02-16T03:15:30.469Z,99358.74
2019-02-16T03:17:59.748Z,99358.76
2019-02-16T03:20:28.986Z,99356.52
2019-02-16T03:23:17.670Z,99366.77
2019-02-16T03:26:10.601Z,99367.36
2019-02-16T03:28:47.227Z,99366.30
2019-02-16T03:32:11.509Z,99361.78
2019-02-16T03:34:46.512Z,99360.34
2019-02-16T03:37:58.914Z,99364.66
2019-02-16T03:40:28.133Z,99360.23
2019-02-16T03:42:58.015Z,99363.84
2019-02-16T03:45:28.988Z,99358.97
2019-02-16T03:47:58.310Z,99363.95
2019-02-16T03:50:29.236Z,99362.04
2019-02-16T03:52:58.492Z,99367.50
2019-02-16T03:55:27.740Z,99368.14
2019-02-16T03:57:56.982Z,99363.63
2019-02-16T04:00:26.945Z,99372.23
2019-02-16T04:02:56.227Z,99366.31
2019-02-16T04:05:25.481Z,99369.90
2019-02-16T04:07:56.213Z,99366.44
2019-02-16T04:10:25.415Z,99357.16
2019-02-16T04:12:54.646Z,99359.64
2019-02-16T04:15:23.886Z,99366.78
2019-02-16T04:17:53.160Z,99364.54
2019-02-16T04:20:26.751Z,99363.57
2019-02-16T04:22:56.000Z,99365.38
2019-02-16T04:25:25.257Z,99368.36
2019-02-16T04:27:54.545Z,99367.52
2019-02-16T04:30:23.825Z,99367.65
2019-02-16T04:32:53.080Z,99374.28
2019-02-16T04:35:22.295Z,99373.91
2019-02-16T04:37:51.562Z,99376.05
2019-02-16T04:40:20.767Z,99374.27
2019-02-16T04:42:51.433Z,99371.17
2019-02-16T04:45:20.678Z,99372.73
2019-02-16T04:47:50.015Z,99375.53
2019-02-16T04:50:19.617Z,99380.80
2019-02-16T04:52:49.853Z,99380.70
2019-02-16T04:55:19.113Z,99383.77
2019-02-16T04:57:48.394Z,99393.40
2019-02-16T05:00:17.661Z,99396.73
2019-02-16T05:02:46.936Z,99405.55
2019-02-16T05:05:16.180Z,99402.34
2019-02-16T05:07:45.444Z,99393.07
2019-02-16T05:10:22.218Z,99395.92
2019-02-16T05:12:52.246Z,99401.39
2019-02-16T05:15:21.519Z,99400.56
2019-02-16T05:17:50.772Z,99399.61
2019-02-16T05:20:20.860Z,99401.66
2019-02-16T05:22:50.107Z,99402.12
2019-02-16T05:25:19.393Z,99402.25
2019-02-16T05:27:48.705Z,99406.53
2019-02-16T05:30:17.957Z,99403.92
2019-02-16T05:32:47.227Z,99413.80
2019-02-16T05:35:16.814Z,99414.98
2019-02-16T05:37:46.101Z,99408.91
2019-02-16T05:40:17.068Z,99413.20
2019-02-16T05:42:46.372Z,99412.84
2019-02-16T05:45:15.632Z,99409.62
2019-02-16T05:47:44.877Z,99409.28
2019-02-16T05:50:14.135Z,99409.28
2019-02-16T05:52:43.688Z,99411.52
2019-02-16T05:55:13.268Z,99413.80
2019-02-16T05:57:42.516Z,99420.69
2019-02-16T06:00:13.173Z,99421.05
2019-02-16T06:02:42.379Z,99411.66
2019-02-16T06:05:11.652Z,99411.16
2019-02-16T06:07:40.897Z,99416.41
2019-02-16T06:10:10.249Z,99414.73
2019-02-16T06:12:40.803Z,99415.80
2019-02-16T06:15:10.550Z,99420.81
2019-02-16T06:17:40.603Z,99427.11
2019-02-16T06:20:10.375Z,99433.07
2019-02-16T06:22:39.617Z,99436.03
2019-02-16T06:25:11.142Z,99439.96
2019-02-16T06:27:40.420Z,99444.11
2019-02-16T06:30:09.722Z,99444.48
2019-02-16T06:32:38.987Z,99452.58
2019-02-16T06:35:47.076Z,99451.27
2019-02-16T06:38:17.513Z,99451.84
2019-02-16T06:40:46.773Z,99459.19
2019-02-16T06:43:16.067Z,99467.80
2019-02-16T06:45:45.336Z,99462.22
2019-02-16T06:48:15.481Z,99457.22
2019-02-16T06:50:52.611Z,99464.35
2019-02-16T06:53:21.869Z,99475.55
2019-02-16T06:56:04.913Z,99474.59
2019-02-16T06:58:34.183Z,99469.83
2019-02-16T07:01:03.463Z,99476.98
2019-02-16T07:03:33.724Z,99489.06
2019-02-16T07:06:03.034Z,99495.55
2019-02-16T07:08:32.605Z,99502.52
2019-02-16T07:11:01.912Z,99503.00
2019-02-16T07:13:32.352Z,99505.00
2019-02-16T07:16:27.744Z,99507.55
2019-02-16T07:19:13.184Z,99502.70
2019-02-16T07:21:42.453Z,99498.86
2019-02-16T07:24:11.683Z,99500.81
2019-02-16T07:26:40.933Z,99508.80
2019-02-16T07:29:10.200Z,99507.91
2019-02-16T07:31:39.481Z,99502.34
2019-02-16T07:34:08.744Z,99514.80
2019-02-16T07:36:39.683Z,99517.15
2019-02-16T07:39:11.221Z,99521.03
2019-02-16T07:41:40.505Z,99519.47
2019-02-16T07:44:17.698Z,99525.91
2019-02-16T07:46:54.602Z,99527.57
2019-02-16T07:49:29.272Z,99524.98
2019-02-16T07:52:10.044Z,99522.56
2019-02-16T07:55:01.488Z,99522.89
2019-02-16T07:57:41.535Z,99521.66
2019-02-16T08:00:25.780Z,99524.26
2019-02-16T08:03:08.260Z,99523.21
2019-02-16T08:06:02.430Z,99533.64
2019-02-16T08:08:39.224Z,99528.13
2019-02-16T08:11:24.232Z,99529.92
2019-02-16T08:13:58.352Z,99524.38
2019-02-16T08:16:55.559Z,99515.50
2019-02-16T08:19:31.659Z,99512.33
2019-02-16T08:22:09.725Z,99508.41
2019-02-16T08:24:57.256Z,99499.58
2019-02-16T08:28:01.711Z,99504.05
2019-02-16T08:30:48.659Z,99504.33
2019-02-16T08:33:39.676Z,99497.58
2019-02-16T08:36:19.501Z,99499.67
2019-02-16T08:39:06.285Z,99498.84
2019-02-16T08:41:57.320Z,99494.98
2019-02-16T08:44:44.079Z,99500.32
2019-02-16T08:47:23.973Z,99493.19
2019-02-16T08:50:24.388Z,99495.85
2019-02-16T08:53:24.979Z,99491.57
2019-02-16T08:56:16.154Z,99488.31
2019-02-16T08:59:00.360Z,99489.19
2019-02-16T09:01:47.344Z,99482.28
2019-02-16T09:04:34.367Z,99483.96
2019-02-16T09:07:10.347Z,99484.30
2019-02-16T09:10:10.776Z,99483.88
2019-02-16T09:12:57.510Z,99474.98
2019-02-16T09:15:45.734Z,99474.75
2019-02-16T09:18:24.014Z,99471.56
2019-02-16T09:21:15.294Z,99481.50
2019-02-16T09:23:59.415Z,99476.91
2019-02-16T09:26:46.706Z,99479.88
2019-02-16T09:29:37.426Z,99476.03
2019-02-16T09:32:18.251Z,99474.42
2019-02-16T09:35:05.801Z,99479.42
2019-02-16T09:37:56.828Z,99470.73
2019-02-16T09:40:36.790Z,99481.79
2019-02-16T09:43:21.973Z,99472.27
2019-02-16T09:46:21.463Z,99468.34
2019-02-16T09:49:07.990Z,99472.50
2019-02-16T09:52:01.946Z,99459.86
2019-02-16T09:54:41.586Z,99468.59
2019-02-16T09:57:28.361Z,99465.63
2019-02-16T10:00:08.150Z,99471.17
2019-02-16T10:02:57.464Z,99471.42
2019-02-16T10:05:40.323Z,99476.08
2019-02-16T10:08:21.705Z,99472.34
2019-02-16T10:11:00.731Z,99466.96
2019-02-16T10:13:47.667Z,99463.58
2019-02-16T10:16:27.647Z,99461.34
2019-02-16T10:19:14.539Z,99460.71
2019-02-16T10:21:57.159Z,99468.39
2019-02-16T10:24:44.054Z,99462.41
2019-02-16T10:27:29.390Z,99471.89
2019-02-16T10:30:05.259Z,99461.81
2019-02-16T10:32:49.078Z,99458.69
2019-02-16T10:35:36.842Z,99460.27
2019-02-16T10:38:18.850Z,99453.97
2019-02-16T10:41:03.505Z,99462.02
2019-02-16T10:43:51.890Z,99465.66
2019-02-16T10:46:41.520Z,99458.91
2019-02-16T10:49:16.823Z,99470.98
2019-02-16T10:52:01.003Z,99456.16
2019-02-16T10:54:36.291Z,99456.97
2019-02-16T10:57:21.941Z,99449.06
2019-02-16T11:00:10.089Z,99455.66
2019-02-16T11:02:58.308Z,99457.64
2019-02-16T11:05:36.938Z,99454.13
2019-02-16T11:08:13.487Z,99444.92
2019-02-16T11:11:00.344Z,99451.72
2019-02-16T11:13:38.331Z,99447.45
2019-02-16T11:16:25.545Z,99448.77
2019-02-16T11:19:08.253Z,99445.55
2019-02-16T11:21:52.712Z,99441.71
2019-02-16T11:24:39.550Z,99450.19
2019-02-16T11:27:21.739Z,99452.48
2019-02-16T11:30:00.845Z,99447.14
2019-02-16T11:32:44.660Z,99444.91
2019-02-16T11:35:31.436Z,99440.28
2019-02-16T11:38:22.632Z,99442.55
2019-02-16T11:41:18.714Z,99439.27
2019-02-16T11:44:02.913Z,99435.04
2019-02-16T11:47:05.579Z,99434.27
2019-02-16T11:49:50.995Z,99435.35
2019-02-16T11:52:44.376Z,99439.47
2019-02-16T11:55:30.791Z,99435.83
2019-02-16T11:58:14.421Z,99431.31
2019-02-16T12:01:05.380Z,99418.89
2019-02-16T12:03:54.352Z,99411.45
2019-02-16T12:06:34.954Z,99406.95
2019-02-16T12:09:18.134Z,99407.53
2019-02-16T12:11:54.235Z,99400.39
2019-02-16T12:14:59.953Z,99399.05
2019-02-16T12:17:46.837Z,99392.13
2019-02-16T12:20:37.883Z,99393.89
2019-02-16T12:23:22.126Z,99389.30
2019-02-16T12:26:01.886Z,99381.70
2019-02-16T12:28:50.448Z,99378.31
2019-02-16T12:31:50.611Z,99375.39
2019-02-16T12:34:27.460Z,99368.70
2019-02-16T12:37:04.001Z,99371.03
2019-02-16T12:39:55.123Z,99360.86
2019-02-16T12:42:55.781Z,99363.53
2019-02-16T12:45:55.638Z,99357.50
2019-02-16T12:48:30.557Z,99349.86
2019-02-16T12:51:09.854Z,99341.91
2019-02-16T12:53:57.431Z,99337.98
2019-02-16T12:56:32.187Z,99331.66
2019-02-16T12:59:20.409Z,99333.77
2019-02-16T13:02:08.575Z,99329.41
2019-02-16T13:04:54.688Z,99334.30
2019-02-16T13:07:45.853Z,99320.07
2019-02-16T13:10:28.295Z,99320.14
2019-02-16T13:13:29.067Z,99312.12
2019-02-16T13:16:13.898Z,99317.64
2019-02-16T13:19:07.940Z,99313.23
2019-02-16T13:22:05.201Z,99313.58
2019-02-16T13:24:53.748Z,99306.95
2019-02-16T13:27:31.466Z,99301.88
2019-02-16T13:30:25.599Z,99302.57
2019-02-16T13:33:15.159Z,99293.63
2019-02-16T13:36:06.310Z,99295.42
2019-02-16T13:39:03.559Z,99291.59
2019-02-16T13:41:40.770Z,99290.91
2019-02-16T13:44:30.383Z,99288.62
2019-02-16T13:47:13.271Z,99287.00
2019-02-16T13:50:04.347Z,99285.22
2019-02-16T13:52:52.547Z,99283.00
2019-02-16T13:55:36.185Z,99283.63
2019-02-16T13:58:37.871Z,99278.36
2019-02-16T14:01:19.963Z,99271.36
2019-02-16T14:04:08.210Z,99271.41
2019-02-16T14:07:00.714Z,99281.02
2019-02-16T14:09:51.808Z,99277.25
2019-02-16T14:12:28.477Z,99266.64
2019-02-16T14:15:14.317Z,99265.45
2019-02-16T14:17:45.500Z,99262.73
2019-02-16T14:20:15.176Z,99262.34
2019-02-16T14:22:46.159Z,99259.75
2019-02-16T14:25:42.796Z,99260.39
2019-02-16T14:28:07.805Z,99257.08
2019-02-16T14:30:38.365Z,99247.95
2019-02-16T14:33:07.628Z,99251.56
2019-02-16T14:35:36.911Z,99248.48
2019-02-16T14:38:29.843Z,99244.70
2019-02-16T14:40:59.108Z,99248.81
2019-02-16T14:43:28.392Z,99245.74
2019-02-16T14:45:58.500Z,99242.53
2019-02-16T14:48:28.076Z,99248.58
2019-02-16T14:50:58.181Z,99248.60
2019-02-16T14:53:27.406Z,99235.50
2019-02-16T14:55:56.979Z,99242.26
2019-02-16T14:58:27.105Z,99235.62
2019-02-16T15:00:57.042Z,99233.42
2019-02-16T15:03:26.534Z,99231.03
2019-02-16T15:05:56.166Z,99233.25
2019-02-16T15:08:25.405Z,99235.25
2019-02-16T15:10:54.981Z,99225.41
2019-02-16T15:13:24.218Z,99222.50
2019-02-16T15:15:54.679Z,99225.80
2019-02-16T15:18:23.895Z,99224.34
2019-02-16T15:20:54.059Z,99230.70
2019-02-16T15:23:23.291Z,99224.51
2019-02-16T15:26:00.898Z,99227.07
2019-02-16T15:28:23.541Z,99221.99
2019-02-16T15:30:52.647Z,99221.11
2019-02-16T15:33:21.886Z,99223.10
2019-02-16T15:35:51.109Z,99223.14
2019-02-16T15:38:25.866Z,99222.72
2019-02-16T15:40:56.577Z,99224.22
2019-02-16T15:43:25.801Z,99221.91
2019-02-16T15:45:55.728Z,99215.56
2019-02-16T15:48:27.338Z,99211.65
2019-02-16T15:50:56.597Z,99197.64
2019-02-16T15:53:25.861Z,99196.67
2019-02-16T15:55:56.147Z,99198.58
2019-02-16T15:58:25.427Z,99197.92
2019-02-16T16:00:54.734Z,99194.41
2019-02-16T16:03:24.027Z,99194.89
2019-02-16T16:05:53.295Z,99191.98
2019-02-16T16:08:40.092Z,99193.76
2019-02-16T16:11:27.733Z,99191.21
2019-02-16T16:14:14.324Z,99189.64
2019-02-16T16:16:53.594Z,99190.19
2019-02-16T16:19:32.935Z,99189.70
2019-02-16T16:22:21.004Z,99184.33
2019-02-16T16:25:15.104Z,99190.79
2019-02-16T16:28:12.488Z,99190.09
2019-02-16T16:30:52.219Z,99198.02
2019-02-16T16:33:55.414Z,99197.61
2019-02-16T16:36:38.272Z,99198.73
2019-02-16T16:39:30.511Z,99204.91
2019-02-16T16:42:18.758Z,99210.20
2019-02-16T16:45:08.220Z,99214.54
2019-02-16T16:47:55.667Z,99223.50
2019-02-16T16:50:59.273Z,99216.34
2019-02-16T16:53:46.196Z,99226.39
2019-02-16T16:56:29.495Z,99221.92
2019-02-16T16:59:18.157Z,99232.98
2019-02-16T17:01:54.846Z,99230.43
2019-02-16T17:04:52.258Z,99231.89
2019-02-16T17:07:35.753Z,99231.97
2019-02-16T17:10:23.091Z,99238.70
2019-02-16T17:13:18.734Z,99248.56
2019-02-16T17:16:05.618Z,99247.20
2019-02-16T17:19:08.716Z,99241.02
2019-02-16T17:21:54.294Z,99239.87
2019-02-16T17:24:35.590Z,99246.03
2019-02-16T17:27:42.414Z,99242.12
2019-02-16T17:30:31.883Z,99237.66
2019-02-16T17:33:14.488Z,99238.59
2019-02-16T17:36:14.242Z,99244.91
2019-02-16T17:38:52.761Z,99245.59
2019-02-16T17:41:43.324Z,99243.75
2019-02-16T17:44:31.479Z,99245.59
2019-02-16T17:47:25.735Z,99243.98
2019-02-16T17:50:16.842Z,99246.48
2019-02-16T17:53:23.312Z,99252.77
2019-02-16T17:56:06.642Z,99253.41
2019-02-16T17:58:57.605Z,99256.06
2019-02-16T18:01:48.339Z,99258.39
2019-02-16T18:04:35.581Z,99256.56
2019-02-16T18:07:18.189Z,99254.25
2019-02-16T18:10:02.408Z,99258.88
2019-02-16T18:13:05.767Z,99264.45
2019-02-16T18:16:06.192Z,99262.29
2019-02-16T18:18:43.171Z,99266.09
2019-02-16T18:21:35.091Z,99261.09
2019-02-16T18:24:12.869Z,99260.08
2019-02-16T18:27:04.079Z,99252.48
2019-02-16T18:30:02.187Z,99257.89
2019-02-16T18:32:51.185Z,99256.70
2019-02-16T18:35:38.101Z,99264.34
2019-02-16T18:38:22.895Z,99253.42
2019-02-16T18:41:10.258Z,99261.64
2019-02-16T18:44:08.555Z,99260.98
2019-02-16T18:47:11.969Z,99256.16
2019-02-16T18:50:02.887Z,99259.61
2019-02-16T18:52:59.227Z,99251.02
2019-02-16T18:55:47.642Z,99257.40
2019-02-16T18:58:35.873Z,99249.61
2019-02-16T19:01:30.099Z,99250.22
2019-02-16T19:04:12.533Z,99247.52
2019-02-16T19:07:03.655Z,99247.37
2019-02-16T19:10:03.683Z,99251.17
2019-02-16T19:12:51.905Z,99247.37
2019-02-16T19:15:51.346Z,99246.01
2019-02-16T19:18:41.924Z,99243.44
2019-02-16T19:21:24.329Z,99246.39
2019-02-16T19:24:11.468Z,99250.08
2019-02-16T19:26:57.400Z,99243.08
2019-02-16T19:29:47.525Z,99252.98
2019-02-16T19:32:35.779Z,99250.92
2019-02-16T19:35:32.062Z,99253.35
2019-02-16T19:38:42.563Z,99241.29
2019-02-16T19:41:20.683Z,99247.07
2019-02-16T19:44:08.902Z,99240.38
2019-02-16T19:47:01.742Z,99240.80
2019-02-16T19:49:48.635Z,99241.13
2019-02-16T19:52:28.092Z,99246.39
2019-02-16T19:55:30.424Z,99250.78
2019-02-16T19:58:22.351Z,99251.59
2019-02-16T20:01:14.052Z,99249.51
2019-02-16T20:04:08.683Z,99249.91
2019-02-16T20:06:50.204Z,99251.70
2019-02-16T20:09:42.566Z,99255.08
2019-02-16T20:12:26.793Z,99249.81
2019-02-16T20:15:21.076Z,99254.09
2019-02-16T20:18:18.362Z,99252.34
2019-02-16T20:20:54.985Z,99253.25
2019-02-16T20:23:38.769Z,99251.63
2019-02-16T20:26:25.660Z,99250.31
2019-02-16T20:29:15.184Z,99245.05
2019-02-16T20:32:11.234Z,99242.51
2019-02-16T20:34:56.382Z,99245.56
2019-02-16T20:37:34.296Z,99246.01
2019-02-16T20:40:28.336Z,99243.61
2019-02-16T20:43:14.486Z,99240.66
2019-02-16T20:45:59.443Z,99230.66
2019-02-16T20:49:01.710Z,99241.42
2019-02-16T20:51:52.258Z,99240.23
2019-02-16T20:54:33.167Z,99238.58
2019-02-16T20:57:33.565Z,99241.98
2019-02-16T21:00:12.599Z,99244.95
2019-02-16T21:03:19.017Z,99242.08
2019-02-16T21:06:09.767Z,99240.43
2019-02-16T21:09:01.808Z,99239.34
2019-02-16T21:11:53.796Z,99236.56
2019-02-16T21:14:44.363Z,99233.06
2019-02-16T21:17:36.894Z,99231.45
2019-02-16T21:20:27.145Z,99234.70
2019-02-16T21:23:08.320Z,99237.81
2019-02-16T21:25:55.318Z,99232.38
2019-02-16T21:28:34.878Z,99236.99
2019-02-16T21:31:25.861Z,99235.83
2019-02-16T21:34:09.487Z,99230.27
2019-02-16T21:36:57.656Z,99236.78
2019-02-16T21:39:39.904Z,99234.22
2019-02-16T21:42:40.098Z,99229.25
2019-02-16T21:45:39.239Z,99233.13
2019-02-16T21:48:37.440Z,99229.29
2019-02-16T21:51:31.512Z,99223.84
2019-02-16T21:54:24.339Z,99231.66
2019-02-16T21:57:15.656Z,99230.75
2019-02-16T22:00:07.146Z,99229.28
2019-02-16T22:03:01.107Z,99217.75
2019-02-16T22:05:58.521Z,99217.27
2019-02-16T22:08:58.803Z,99219.46
2019-02-16T22:11:55.018Z,99222.05
2019-02-16T22:14:25.057Z,99219.02
2019-02-16T22:16:54.296Z,99220.04
2019-02-16T22:19:23.597Z,99217.88
2019-02-16T22:21:53.105Z,99216.50
2019-02-16T22:24:22.355Z,99221.61
2019-02-16T22:26:51.681Z,99218.44
2019-02-16T22:29:21.184Z,99218.04
2019-02-16T22:31:54.077Z,99217.96
2019-02-16T22:34:23.332Z,99217.27
2019-02-16T22:36:56.091Z,99210.63
2019-02-16T22:39:25.318Z,99214.92
2019-02-16T22:41:54.558Z,99216.59
2019-02-16T22:44:23.799Z,99215.47
2019-02-16T22:46:53.037Z,99213.88
2019-02-16T22:49:24.616Z,99219.08
2019-02-16T22:51:53.790Z,99210.98
2019-02-16T22:54:22.858Z,99215.82
2019-02-16T22:56:52.368Z,99215.74
2019-02-16T22:59:21.900Z,99218.33
2019-02-16T23:01:51.461Z,99217.63
2019-02-16T23:04:23.054Z,99214.36
2019-02-16T23:06:54.435Z,99209.40
2019-02-16T23:09:27.669Z,99212.97
2019-02-16T23:11:57.034Z,99220.60
2019-02-16T23:14:32.287Z,99215.54
2019-02-16T23:17:02.118Z,99217.89
2019-02-16T23:19:31.364Z,99210.30
2019-02-16T23:22:00.433Z,99213.82
2019-02-16T23:24:29.668Z,99215.24
2019-02-16T23:27:00.129Z,99208.20
2019-02-16T23:29:29.607Z,99207.30
2019-02-16T23:31:58.844Z,99209.33
2019-02-16T23:34:29.034Z,99206.55
2019-02-16T23:36:59.240Z,99204.55
2019-02-16T23:39:31.336Z,99199.77
2019-02-16T23:42:00.577Z,99205.03
2019-02-16T23:44:32.946Z,99204.52
2019-02-16T23:47:04.737Z,99201.81
2019-02-16T23:49:35.256Z,99197.12
2019-02-16T23:52:04.339Z,99198.48
2019-02-16T23:54:35.857Z,99191.19
2019-02-16T23:57:05.126Z,99191.79
2019-02-16T23:59:35.332Z,99191.78
